createdAt,value
2022-07-30T00:01:17.047Z,1.00
2022-07-30T00:03:44.004Z,1.00
2022-07-30T00:06:10.781Z,99.90
2022-07-30T00:08:37.480Z,99.90
2022-07-30T00:11:04.244Z,1.00
2022-07-30T00:13:31.065Z,1.00
2022-07-30T00:15:57.851Z,33.50
2022-07-30T00:18:24.504Z,1.00
2022-07-30T00:20:51.786Z,1.00
2022-07-30T00:23:18.631Z,1.00
2022-07-30T00:25:45.522Z,99.90
2022-07-30T00:28:12.222Z,1.00
2022-07-30T00:30:40.563Z,99.90
2022-07-30T00:33:08.285Z,99.90
2022-07-30T00:35:35.200Z,99.90
2022-07-30T00:38:02.052Z,99.90
2022-07-30T00:40:28.936Z,99.90
2022-07-30T00:42:55.800Z,99.90
2022-07-30T00:45:22.570Z,99.90
2022-07-30T00:47:49.368Z,1.00
2022-07-30T00:50:16.754Z,99.90
2022-07-30T00:52:44.364Z,99.90
2022-07-30T00:55:14.041Z,99.90
2022-07-30T00:57:41.854Z,1.00
2022-07-30T01:00:11.866Z,1.00
2022-07-30T01:02:38.868Z,1.00
2022-07-30T01:05:06.436Z,1.00
2022-07-30T01:07:33.371Z,1.00
2022-07-30T01:10:00.017Z,1.30
2022-07-30T01:12:27.271Z,1.00
2022-07-30T01:14:56.991Z,1.00
2022-07-30T01:17:23.902Z,23.30
2022-07-30T01:19:55.782Z,30.70
2022-07-30T01:22:31.324Z,99.90
2022-07-30T01:25:16.071Z,99.90
2022-07-30T01:28:13.822Z,99.90
2022-07-30T01:30:46.227Z,1.00
2022-07-30T01:33:18.599Z,1.00
2022-07-30T01:35:47.311Z,1.00
2022-07-30T01:38:17.144Z,26.30
2022-07-30T01:40:46.185Z,1.00
2022-07-30T01:43:13.768Z,1.00
2022-07-30T01:45:44.427Z,1.00
2022-07-30T01:48:13.529Z,1.00
2022-07-30T01:50:44.546Z,1.00
2022-07-30T01:53:16.683Z,99.90
2022-07-30T01:55:44.256Z,23.80
2022-07-30T01:58:13.797Z,1.00
2022-07-30T02:00:43.344Z,1.00
2022-07-30T02:03:11.341Z,9.50
2022-07-30T02:05:40.607Z,99.90
2022-07-30T02:08:16.207Z,71.70
2022-07-30T02:10:48.940Z,70.60
2022-07-30T02:13:20.844Z,1.00
2022-07-30T02:15:57.210Z,99.90
2022-07-30T02:18:40.445Z,51.20
2022-07-30T02:21:11.636Z,1.00
2022-07-30T02:23:43.644Z,99.90
2022-07-30T02:26:15.952Z,45.10
2022-07-30T02:28:45.292Z,99.90
2022-07-30T02:31:17.991Z,99.90
2022-07-30T02:33:49.516Z,99.90
2022-07-30T02:36:18.852Z,99.90
2022-07-30T02:38:47.311Z,77.80
2022-07-30T02:41:16.238Z,99.90
2022-07-30T02:43:43.239Z,99.90
2022-07-30T02:46:12.580Z,78.70
2022-07-30T02:48:41.043Z,99.90
2022-07-30T02:51:09.084Z,99.90
2022-07-30T02:53:38.255Z,45.50
2022-07-30T02:56:07.912Z,1.00
2022-07-30T02:58:37.806Z,99.90
2022-07-30T03:01:05.513Z,99.90
2022-07-30T03:03:33.519Z,99.90
2022-07-30T03:06:02.313Z,99.90
2022-07-30T03:08:31.929Z,99.90
2022-07-30T03:10:59.414Z,99.90
2022-07-30T03:13:26.626Z,99.90
2022-07-30T03:15:56.619Z,99.90
2022-07-30T03:18:24.725Z,99.90
2022-07-30T03:20:56.243Z,99.90
2022-07-30T03:23:24.061Z,99.90
2022-07-30T03:26:03.450Z,99.90
2022-07-30T03:28:32.804Z,99.90
2022-07-30T03:31:00.250Z,32.50
2022-07-30T03:33:38.228Z,99.90
2022-07-30T03:36:07.298Z,99.90
2022-07-30T03:38:37.504Z,99.90
2022-07-30T03:41:06.371Z,99.90
2022-07-30T03:43:34.102Z,99.90
2022-07-30T03:46:03.436Z,99.90
2022-07-30T03:48:31.201Z,1.00
2022-07-30T03:50:58.933Z,51.40
2022-07-30T03:53:27.584Z,1.00
2022-07-30T03:55:54.656Z,99.90
2022-07-30T03:58:21.592Z,99.90
2022-07-30T04:00:50.382Z,99.90
2022-07-30T04:03:27.630Z,99.90
2022-07-30T04:05:54.538Z,99.90
2022-07-30T04:08:21.437Z,99.90
2022-07-30T04:10:49.179Z,99.90
2022-07-30T04:13:15.929Z,99.90
2022-07-30T04:16:38.390Z,99.90
2022-07-30T04:18:53.341Z,99.90
2022-07-30T04:21:22.904Z,99.90
2022-07-30T04:24:02.392Z,99.90
2022-07-30T04:26:34.389Z,99.90
2022-07-30T04:29:02.203Z,99.90
2022-07-30T04:31:29.777Z,99.90
2022-07-30T04:33:57.278Z,99.90
2022-07-30T04:36:33.492Z,99.90
2022-07-30T04:39:00.771Z,99.90
2022-07-30T04:41:27.640Z,97.20
2022-07-30T04:43:54.295Z,99.90
2022-07-30T04:46:23.286Z,99.90
2022-07-30T04:48:52.073Z,99.90
2022-07-30T04:51:35.611Z,99.90
2022-07-30T04:54:05.397Z,57.70
2022-07-30T04:56:34.985Z,56.10
2022-07-30T04:59:02.395Z,1.00
2022-07-30T05:01:40.455Z,99.90
2022-07-30T05:04:10.375Z,1.00
2022-07-30T05:06:38.494Z,1.00
2022-07-30T05:09:06.160Z,99.90
2022-07-30T05:11:32.932Z,1.00
2022-07-30T05:13:59.675Z,1.00
2022-07-30T05:16:27.436Z,99.90
2022-07-30T05:18:54.537Z,99.90
2022-07-30T05:21:21.339Z,1.00
2022-07-30T05:23:50.074Z,99.90
2022-07-30T05:26:21.637Z,99.90
2022-07-30T05:28:53.554Z,99.90
2022-07-30T05:31:21.875Z,99.90
2022-07-30T05:33:48.685Z,1.00
2022-07-30T05:36:15.338Z,1.00
2022-07-30T05:38:42.027Z,99.90
2022-07-30T05:41:30.730Z,1.00
2022-07-30T05:43:56.095Z,46.70
2022-07-30T05:46:24.106Z,99.90
2022-07-30T05:48:50.958Z,1.00
2022-07-30T05:51:19.709Z,99.90
2022-07-30T05:53:50.256Z,99.90
2022-07-30T05:56:17.069Z,1.00
2022-07-30T05:58:43.858Z,3.50
2022-07-30T06:01:10.667Z,1.00
2022-07-30T06:03:38.857Z,99.90
2022-07-30T06:06:07.038Z,99.90
2022-07-30T06:08:33.802Z,99.90
2022-07-30T06:11:00.457Z,1.00
2022-07-30T06:13:27.241Z,1.00
2022-07-30T06:15:53.980Z,99.90
2022-07-30T06:18:23.331Z,99.90
2022-07-30T06:20:52.018Z,99.90
2022-07-30T06:23:19.121Z,99.90
2022-07-30T06:25:46.756Z,1.00
2022-07-30T06:28:36.621Z,99.90
2022-07-30T06:31:01.284Z,99.90
2022-07-30T06:33:29.048Z,99.90
2022-07-30T06:35:55.734Z,99.90
2022-07-30T06:38:22.648Z,99.90
2022-07-30T06:40:49.355Z,99.90
2022-07-30T06:43:16.109Z,99.90
2022-07-30T06:45:43.305Z,1.00
2022-07-30T06:48:09.970Z,99.90
2022-07-30T06:50:37.324Z,99.90
2022-07-30T06:53:04.164Z,99.90
2022-07-30T06:55:30.851Z,99.90
2022-07-30T06:57:57.546Z,99.90
2022-07-30T07:00:24.274Z,99.90
2022-07-30T07:02:51.381Z,99.90
2022-07-30T07:05:18.110Z,99.90
2022-07-30T07:07:56.543Z,99.90
2022-07-30T07:10:25.924Z,99.90
2022-07-30T07:12:52.689Z,93.20
2022-07-30T07:15:19.612Z,92.30
2022-07-30T07:17:49.307Z,90.80
2022-07-30T07:20:16.025Z,82.40
2022-07-30T07:22:42.692Z,84.10
2022-07-30T07:25:12.069Z,77.30
2022-07-30T07:27:38.939Z,91.00
2022-07-30T07:30:06.459Z,63.50
2022-07-30T07:32:35.250Z,60.10
2022-07-30T07:35:02.179Z,58.20
2022-07-30T07:37:28.985Z,63.10
2022-07-30T07:39:56.027Z,67.50
2022-07-30T07:42:23.031Z,58.50
2022-07-30T07:44:49.709Z,58.40
2022-07-30T07:47:16.501Z,50.70
2022-07-30T07:49:43.130Z,54.70
2022-07-30T07:52:09.770Z,48.00
2022-07-30T07:54:36.765Z,48.90
2022-07-30T07:57:07.901Z,48.80
2022-07-30T07:59:40.098Z,44.30
2022-07-30T08:02:08.566Z,44.20
2022-07-30T08:04:35.879Z,43.00
2022-07-30T08:07:03.451Z,39.00
2022-07-30T08:09:43.715Z,35.60
2022-07-30T08:12:12.907Z,32.50
2022-07-30T08:14:39.861Z,30.90
2022-07-30T08:17:06.905Z,31.00
2022-07-30T08:19:34.224Z,28.30
2022-07-30T08:22:00.978Z,26.50
2022-07-30T08:24:27.599Z,26.20
2022-07-30T08:26:54.380Z,26.30
2022-07-30T08:29:21.018Z,24.10
2022-07-30T08:31:47.774Z,24.40
2022-07-30T08:34:15.060Z,23.10
2022-07-30T08:36:42.313Z,22.80
2022-07-30T08:39:09.120Z,21.80
2022-07-30T08:41:39.339Z,20.30
2022-07-30T08:44:12.678Z,20.30
2022-07-30T08:46:47.440Z,19.00
2022-07-30T08:49:14.902Z,17.00
2022-07-30T08:51:42.360Z,16.00
2022-07-30T08:54:18.330Z,25.80
2022-07-30T08:56:45.776Z,15.50
2022-07-30T08:59:13.072Z,14.50
2022-07-30T09:01:39.804Z,14.30
2022-07-30T09:06:33.087Z,11.40
2022-07-30T09:09:00.290Z,21.70
2022-07-30T09:11:27.344Z,6.40
2022-07-30T09:13:54.502Z,7.40
2022-07-30T09:16:26.429Z,5.80
2022-07-30T09:18:55.077Z,6.50
2022-07-30T09:21:26.337Z,6.30
2022-07-30T09:24:06.654Z,6.50
2022-07-30T09:26:59.587Z,1.00
2022-07-30T09:29:28.790Z,1.00
2022-07-30T09:32:04.857Z,1.00
2022-07-30T09:34:35.775Z,1.50
2022-07-30T09:37:05.465Z,1.00
2022-07-30T09:39:35.090Z,1.00
2022-07-30T09:42:04.315Z,1.00
2022-07-30T09:44:39.520Z,1.00
2022-07-30T09:47:29.484Z,1.00
2022-07-30T09:50:11.115Z,1.00
2022-07-30T09:52:43.939Z,1.00
2022-07-30T09:55:33.333Z,1.00
2022-07-30T09:58:05.611Z,1.00
2022-07-30T10:00:34.837Z,1.00
2022-07-30T10:03:33.092Z,1.00
2022-07-30T10:06:03.056Z,1.00
2022-07-30T10:08:42.651Z,1.00
2022-07-30T10:11:24.038Z,1.00
2022-07-30T10:13:54.658Z,1.00
2022-07-30T10:16:23.875Z,1.00
2022-07-30T10:18:51.186Z,1.00
2022-07-30T10:21:19.734Z,1.00
2022-07-30T10:23:46.552Z,1.00
2022-07-30T10:26:18.280Z,1.00
2022-07-30T10:28:46.118Z,1.00
2022-07-30T10:31:49.181Z,1.00
2022-07-30T10:34:00.738Z,1.00
2022-07-30T10:36:28.366Z,1.00
2022-07-30T10:38:56.526Z,1.00
2022-07-30T10:41:59.080Z,1.00
2022-07-30T10:44:54.070Z,1.00
2022-07-30T10:47:29.811Z,1.00
2022-07-30T10:50:19.573Z,1.00
2022-07-30T10:52:53.246Z,1.00
2022-07-30T10:55:37.404Z,1.00
2022-07-30T10:58:09.250Z,1.00
2022-07-30T11:00:51.807Z,1.00
2022-07-30T11:03:31.397Z,1.00
2022-07-30T11:06:24.349Z,1.00
2022-07-30T11:08:51.843Z,1.00
2022-07-30T11:12:01.777Z,1.00
2022-07-30T11:14:08.158Z,1.00
2022-07-30T11:16:34.833Z,1.00
2022-07-30T11:19:51.518Z,1.00
2022-07-30T11:22:25.264Z,1.00
2022-07-30T11:24:52.697Z,1.00
2022-07-30T11:27:48.468Z,1.00
2022-07-30T11:30:23.387Z,1.00
2022-07-30T11:32:52.464Z,1.00
2022-07-30T11:35:24.216Z,1.00
2022-07-30T11:38:19.566Z,1.00
2022-07-30T11:40:49.070Z,1.00
2022-07-30T11:43:34.797Z,1.00
2022-07-30T11:46:07.552Z,1.00
2022-07-30T11:48:39.124Z,1.00
2022-07-30T11:51:06.357Z,1.00
2022-07-30T11:53:33.048Z,1.00
2022-07-30T11:56:02.768Z,1.00
2022-07-30T11:58:32.221Z,1.00
2022-07-30T12:01:02.037Z,1.00
2022-07-30T12:03:31.785Z,1.00
2022-07-30T12:06:10.091Z,1.00
2022-07-30T12:08:45.487Z,1.00
2022-07-30T12:11:12.759Z,1.00
2022-07-30T12:13:44.863Z,1.00
2022-07-30T12:16:16.746Z,1.00
2022-07-30T12:18:44.567Z,1.00
2022-07-30T12:21:12.644Z,1.00
2022-07-30T12:23:41.841Z,1.00
2022-07-30T12:26:09.135Z,1.00
2022-07-30T12:28:36.397Z,1.00
2022-07-30T12:31:04.376Z,1.00
2022-07-30T12:33:31.766Z,1.00
2022-07-30T12:36:00.700Z,1.00
2022-07-30T12:38:28.648Z,1.00
2022-07-30T12:41:03.412Z,1.00
2022-07-30T12:44:02.580Z,1.00
2022-07-30T12:46:29.336Z,1.00
2022-07-30T12:49:08.220Z,1.00
2022-07-30T12:51:59.942Z,1.00
2022-07-30T12:54:27.963Z,1.00
2022-07-30T12:57:04.015Z,1.00
2022-07-30T12:59:32.498Z,1.00
2022-07-30T13:02:02.419Z,1.00
2022-07-30T13:04:29.596Z,1.00
2022-07-30T13:07:08.103Z,1.00
2022-07-30T13:09:34.917Z,1.00
2022-07-30T13:12:01.744Z,1.00
2022-07-30T13:14:28.407Z,1.00
2022-07-30T13:16:56.866Z,1.00
2022-07-30T13:19:24.821Z,1.00
2022-07-30T13:21:51.995Z,1.00
2022-07-30T13:24:19.555Z,1.00
2022-07-30T13:26:47.114Z,1.00
2022-07-30T13:29:14.043Z,1.00
2022-07-30T13:31:42.906Z,1.00
2022-07-30T13:34:10.653Z,1.00
2022-07-30T13:36:37.323Z,1.00
2022-07-30T13:39:04.287Z,1.00
2022-07-30T13:41:31.040Z,1.00
2022-07-30T13:43:57.717Z,1.00
2022-07-30T13:46:24.462Z,1.00
2022-07-30T13:48:51.177Z,1.00
2022-07-30T13:51:17.944Z,1.00
2022-07-30T13:53:44.635Z,1.00
2022-07-30T13:56:12.396Z,1.00
2022-07-30T13:58:40.045Z,1.00
2022-07-30T14:01:09.462Z,1.00
2022-07-30T14:03:47.101Z,1.00
2022-07-30T14:06:16.578Z,1.00
2022-07-30T14:08:43.249Z,1.00
2022-07-30T14:11:09.932Z,1.00
2022-07-30T14:13:36.806Z,1.00
2022-07-30T14:16:03.920Z,1.00
2022-07-30T14:18:30.701Z,1.00
2022-07-30T14:20:57.501Z,1.00
2022-07-30T14:23:24.171Z,1.00
2022-07-30T14:25:50.897Z,1.00
2022-07-30T14:28:17.773Z,1.00
2022-07-30T14:30:44.470Z,1.00
2022-07-30T14:33:11.120Z,1.00
2022-07-30T14:35:37.858Z,1.00
2022-07-30T14:38:04.641Z,1.00
2022-07-30T14:40:31.564Z,1.00
2022-07-30T14:42:58.310Z,1.00
2022-07-30T14:45:25.572Z,1.00
2022-07-30T14:47:52.399Z,1.00
2022-07-30T14:50:19.305Z,1.00
2022-07-30T14:52:47.600Z,1.00
2022-07-30T14:55:14.592Z,1.00
2022-07-30T14:57:43.340Z,1.00
2022-07-30T15:00:11.706Z,1.00
2022-07-30T15:02:38.721Z,1.00
2022-07-30T15:05:05.996Z,1.00
2022-07-30T15:07:34.801Z,1.00
2022-07-30T15:10:02.517Z,1.00
2022-07-30T15:12:29.365Z,1.00
2022-07-30T15:14:56.075Z,1.00
2022-07-30T15:17:22.706Z,1.00
2022-07-30T15:19:51.006Z,1.00
2022-07-30T15:22:19.608Z,1.00
2022-07-30T15:24:46.710Z,1.00
2022-07-30T15:27:13.371Z,1.00
2022-07-30T15:29:40.120Z,1.00
2022-07-30T15:32:07.364Z,1.00
2022-07-30T15:34:34.671Z,1.00
2022-07-30T15:37:02.565Z,1.00
2022-07-30T15:39:32.176Z,1.00
2022-07-30T15:41:59.637Z,1.00
2022-07-30T15:44:26.660Z,1.00
2022-07-30T15:46:53.752Z,1.00
2022-07-30T15:49:20.998Z,1.00
2022-07-30T15:51:48.703Z,1.00
2022-07-30T15:54:22.234Z,1.00
2022-07-30T15:56:50.570Z,1.00
2022-07-30T15:59:17.691Z,1.00
2022-07-30T16:01:44.533Z,1.00
2022-07-30T16:04:19.367Z,1.00
2022-07-30T16:06:47.494Z,1.00
2022-07-30T16:09:15.305Z,1.00
2022-07-30T16:11:42.925Z,1.00
2022-07-30T16:14:09.829Z,1.00
2022-07-30T16:16:36.554Z,1.00
2022-07-30T16:19:03.313Z,1.00
2022-07-30T16:21:30.059Z,1.00
2022-07-30T16:23:56.785Z,1.00
2022-07-30T16:26:23.637Z,1.00
2022-07-30T16:28:50.657Z,1.00
2022-07-30T16:31:17.405Z,1.00
2022-07-30T16:33:44.192Z,1.00
2022-07-30T16:36:11.168Z,1.00
2022-07-30T16:38:37.960Z,1.00
2022-07-30T16:41:04.687Z,1.00
2022-07-30T16:43:31.962Z,1.00
2022-07-30T16:45:59.700Z,1.00
2022-07-30T16:48:26.692Z,1.00
2022-07-30T16:50:53.774Z,1.00
2022-07-30T16:53:20.517Z,1.00
2022-07-30T16:55:47.537Z,1.00
2022-07-30T16:58:14.218Z,1.00
2022-07-30T17:00:41.115Z,1.00
2022-07-30T17:03:07.871Z,1.00
2022-07-30T17:05:34.828Z,1.00
2022-07-30T17:08:01.652Z,1.00
2022-07-30T17:10:28.296Z,1.00
2022-07-30T17:12:57.228Z,1.00
2022-07-30T17:15:32.539Z,1.00
2022-07-30T17:18:00.843Z,1.00
2022-07-30T17:20:28.104Z,1.00
2022-07-30T17:22:57.794Z,1.00
2022-07-30T17:25:27.390Z,1.00
2022-07-30T17:27:55.659Z,1.00
2022-07-30T17:30:23.321Z,1.00
2022-07-30T17:32:50.509Z,1.00
2022-07-30T17:35:17.313Z,1.00
2022-07-30T17:37:44.101Z,1.00
2022-07-30T17:40:30.257Z,1.00
2022-07-30T17:43:05.780Z,1.00
2022-07-30T17:45:34.583Z,1.00
2022-07-30T17:48:02.045Z,1.00
2022-07-30T17:50:30.191Z,1.00
2022-07-30T17:52:57.186Z,1.00
2022-07-30T17:55:25.176Z,1.00
2022-07-30T17:57:51.824Z,1.00
2022-07-30T18:00:18.530Z,1.00
2022-07-30T18:02:45.246Z,1.00
2022-07-30T18:05:15.314Z,1.00
2022-07-30T18:07:43.523Z,1.00
2022-07-30T18:10:11.511Z,1.00
2022-07-30T18:12:38.471Z,1.00
2022-07-30T18:15:06.374Z,1.00
2022-07-30T18:17:33.126Z,1.00
2022-07-30T18:20:00.051Z,1.00
2022-07-30T18:22:29.705Z,1.00
2022-07-30T18:25:00.478Z,1.00
2022-07-30T18:27:27.933Z,1.00
2022-07-30T18:29:54.568Z,1.00
2022-07-30T18:32:23.432Z,1.00
2022-07-30T18:34:50.245Z,1.00
2022-07-30T18:37:17.095Z,1.00
2022-07-30T18:39:43.877Z,1.00
2022-07-30T18:42:10.596Z,1.00
2022-07-30T18:44:37.549Z,1.00
2022-07-30T18:47:04.270Z,1.00
2022-07-30T18:49:38.342Z,1.00
2022-07-30T18:52:07.284Z,1.00
2022-07-30T18:54:35.799Z,1.00
2022-07-30T18:57:02.884Z,1.00
2022-07-30T18:59:29.820Z,1.00
2022-07-30T19:01:56.493Z,1.00
2022-07-30T19:04:23.365Z,1.00
2022-07-30T19:06:50.121Z,1.00
2022-07-30T19:09:18.135Z,1.00
2022-07-30T19:11:48.017Z,1.00
2022-07-30T19:14:15.205Z,1.00
2022-07-30T19:16:43.278Z,1.00
2022-07-30T19:19:12.756Z,1.00
2022-07-30T19:21:40.097Z,1.00
2022-07-30T19:24:07.692Z,1.00
2022-07-30T19:26:34.860Z,1.00
2022-07-30T19:29:01.696Z,1.00
2022-07-30T19:31:28.364Z,1.00
2022-07-30T19:33:55.023Z,1.00
2022-07-30T19:36:21.712Z,1.00
2022-07-30T19:38:49.995Z,1.00
2022-07-30T19:41:16.947Z,1.00
2022-07-30T19:43:58.090Z,1.00
2022-07-30T19:46:25.594Z,1.00
2022-07-30T19:48:52.417Z,2.80
2022-07-30T19:51:20.883Z,5.40
2022-07-30T19:53:47.987Z,4.90
2022-07-30T19:56:14.760Z,10.80
2022-07-30T19:58:41.466Z,16.70
2022-07-30T20:01:10.116Z,23.40
2022-07-30T20:03:38.711Z,35.00
2022-07-30T20:06:08.840Z,72.80
2022-07-30T20:08:44.603Z,73.90
2022-07-30T20:11:11.826Z,91.90
2022-07-30T20:13:48.612Z,93.20
2022-07-30T20:16:16.462Z,99.90
2022-07-30T20:18:45.923Z,99.90
2022-07-30T20:21:15.461Z,99.90
2022-07-30T20:23:44.631Z,99.90
2022-07-30T20:26:14.119Z,99.90
2022-07-30T20:28:46.364Z,99.90
2022-07-30T20:31:14.357Z,99.90
2022-07-30T20:33:42.232Z,99.90
2022-07-30T20:36:09.825Z,99.90
2022-07-30T20:38:39.017Z,99.90
2022-07-30T20:41:10.189Z,99.90
2022-07-30T20:43:46.018Z,99.90
2022-07-30T20:46:19.647Z,99.90
2022-07-30T20:48:46.439Z,99.90
2022-07-30T20:51:13.710Z,1.00
2022-07-30T20:53:45.252Z,1.00
2022-07-30T20:56:13.412Z,99.90
2022-07-30T20:58:40.873Z,99.90
2022-07-30T21:01:07.802Z,99.90
2022-07-30T21:03:34.561Z,99.90
2022-07-30T21:06:03.299Z,99.90
2022-07-30T21:08:31.328Z,1.00
2022-07-30T21:11:00.245Z,1.00
2022-07-30T21:13:27.124Z,99.90
2022-07-30T21:16:02.773Z,1.00
2022-07-30T21:18:30.844Z,1.00
2022-07-30T21:20:57.907Z,1.00
2022-07-30T21:23:25.075Z,1.00
2022-07-30T21:26:01.509Z,1.00
2022-07-30T21:28:35.306Z,1.00
2022-07-30T21:31:03.526Z,1.00
2022-07-30T21:33:31.719Z,1.00
2022-07-30T21:35:59.307Z,1.00
2022-07-30T21:38:30.553Z,1.00
2022-07-30T21:40:59.137Z,99.90
2022-07-30T21:43:30.004Z,1.00
2022-07-30T21:45:58.452Z,99.90
2022-07-30T21:48:26.561Z,1.00
2022-07-30T21:50:54.471Z,99.90
2022-07-30T21:53:29.493Z,99.90
2022-07-30T21:56:08.871Z,1.00
2022-07-30T21:58:35.541Z,1.00
2022-07-30T22:01:17.069Z,1.00
2022-07-30T22:04:01.581Z,99.90
2022-07-30T22:06:37.779Z,99.90
2022-07-30T22:09:19.154Z,99.90
2022-07-30T22:11:53.341Z,99.90
2022-07-30T22:14:20.056Z,99.90
2022-07-30T22:16:46.957Z,96.90
2022-07-30T22:19:14.939Z,99.90
2022-07-30T22:21:46.428Z,99.90
2022-07-30T22:24:28.815Z,1.00
2022-07-30T22:26:57.108Z,1.00
2022-07-30T22:29:26.622Z,1.00
2022-07-30T22:32:00.732Z,35.40
2022-07-30T22:34:27.652Z,1.00
2022-07-30T22:36:54.388Z,1.00
2022-07-30T22:39:24.452Z,93.90
2022-07-30T22:41:59.072Z,99.90
2022-07-30T22:44:28.171Z,99.90
2022-07-30T22:46:57.828Z,99.90
2022-07-30T22:49:45.156Z,99.90
2022-07-30T22:52:20.491Z,1.00
2022-07-30T22:54:50.915Z,1.00
2022-07-30T22:57:17.747Z,1.00
2022-07-30T23:00:00.175Z,1.00
2022-07-30T23:02:27.834Z,99.90
2022-07-30T23:04:54.786Z,1.00
2022-07-30T23:10:17.054Z,1.00
2022-07-30T23:12:34.100Z,99.90
2022-07-30T23:12:47.356Z,99.90
2022-07-30T23:15:14.644Z,1.00
2022-07-30T23:17:41.311Z,1.00
2022-07-30T23:20:12.133Z,99.90
2022-07-30T23:22:38.947Z,1.00
2022-07-30T23:25:07.870Z,1.00
2022-07-30T23:27:34.519Z,34.30
2022-07-30T23:30:01.163Z,99.90
2022-07-30T23:32:28.152Z,1.00
2022-07-30T23:34:54.815Z,1.00
2022-07-30T23:37:21.818Z,1.00
2022-07-30T23:39:48.485Z,1.00
2022-07-30T23:42:15.310Z,38.90
2022-07-30T23:44:42.109Z,1.00
2022-07-30T23:47:08.764Z,1.00
2022-07-30T23:49:35.455Z,99.90
2022-07-30T23:52:02.363Z,1.00
2022-07-30T23:54:29.062Z,1.00
2022-07-30T23:56:56.349Z,1.00
2022-07-30T23:59:36.834Z,1.00
